Tambon Mi Chai, Thailand

9:39 AM ICT on August 05, 2015 (GMT +0700)
Ban Nongdouangtai, Vientiane, Lao PDR | | Change Station
CLOSE
Current Station
Personal Weather Station
Location: Vientiane, VIENTIANE PREFECTURE
Elevation: 577 ft
Nearby Weather Stations

Elev 577 ft 17.97 °N, 102.60 °E | Updated 60 seconds ago

Mostly Cloudy
Mostly Cloudy
78.8 °F
Feels Like 82 °F
N
1.0
Wind Variable Wind from SE
Gusts 2.0 mph

Today
High -- | Low -- °F
--% Chance of Precip.
Yesterday
High -- | Low -- °F
Precip. -- in
5:48 AM 6:41 PM
Waning Gibbous, 72% visible
Pressure 29.74 in
Visibility 3.1 miles
Clouds Scattered Clouds 1000 ft
Mostly Cloudy 8300 ft
Heat Index 82 °F
Dew Point 75 °F
Humidity 88%
Rainfall 0.79 in
Snow Depth Not available.
UV 6 out of 12
Pollen Not available.
Air Quality Not available.
Flu Activity Not available.
METAR VLVT 050230Z 18004KT 5000 BR SCT010 BKN083 26/24 Q1007 NOSIG

More Conditions Fewer Conditions

Pressure 29.74 in
Visibility 3.1 miles
Clouds Scattered Clouds 1000 ft
Mostly Cloudy 8300 ft
Heat Index 82 °F
Dew Point 75 °F
Humidity 88%
Rainfall 0.79 in
Snow Depth Not available.
UV 6 out of 12
Pollen Not available.
Air Quality Not available.
Flu Activity Not available.
METAR VLVT 050230Z 18004KT 5000 BR SCT010 BKN083 26/24 Q1007 NOSIG

More Conditions Fewer Conditions

10-Day Weather Forecast

×

Almanac

Astronomy

Aug. 05, 2015 Rise Set
Actual Time
Civil Twilight
Nautical Twilight
Astronomical Twilight
Moon
Length of Visible Light
Length of Day
Tomorrow will be .
, % of the Moon is Illuminated

Today's Extremes

Country Highs Country Lows

Community

WunderPhotos

Upload Photos

1,844,087 photos uploaded!

WunderBlogs® & News

Nearby

Air Quality

  Air Quality AQ Index Pollutant
Not available.

Snow Depth

Station Depth Elevation

Earthquake Activity

City Distance Mag. Time & Date
Minimum magnitude displayed is 2.5.

Coastal Water Temperatures

Place Temperature

Stations

Nearby Weather Stations

Station Location Temp. Windchill Dew Point Humidity Wind Precip. Elev Updated Type